Main page
METAR-TAF:

METAR-TAF

Airports :

Vilnius Airport

Vilnius, Lithuania

latitude: 54-38N, longitude: 025-06E, elevation: 162 m

Current weather observation

The report was made 12 minutes ago, at 02:20 UTC
Wind 1 kt from variable directions
Temperature 11°C
Humidity 66%
Pressure 1022 hPa
Visibility 10 km or more
no clouds below 1500 m and no cumulonimbus

METAR: EYVI 220220Z VRB01KT CAVOK 11/05 Q1022 NOSIG

Time: 05:32 (02:32 UTC)

Forecast

The report was made 3 hours and 30 minutes ago, at 23:02 UTC
Forecast valid from 22 at 00 UTC to 22 at 24 UTC
Wind 5 kt from variable directions
Visibility: 9000 m
Broken clouds at a height of 4500 ft
Temporary
from 22 at 03 UTC to 22 at 07 UTC
Broken clouds at a height of 4000 ft, Cumulonimbus.
Temporary
from 22 at 14 UTC to 22 at 19 UTC
Broken clouds at a height of 1800 ft, Cumulonimbus.

TAF: EYVI 212302Z 2200/2224 VRB05KT 9000 BKN045 TEMPO 2203/2207 BKN040CB TEMPO 2214/2219 BKN018CB

Weather observations and forecasts of more than 4000 airports (METAR and TAF reports).

The available stations are represented by yellow and red dots on the map.

Hover mouse over dot to see the name of the station.

Then click to see weather observations and forecasts.

To change the map : click on the green buttons with a black cross to zoom in, on the green button with a dash to zoom out, or on the green arrows for adjacent maps.


METAR-TAF: